Weather at St-Michel-de-Napierville Airport

Public forecast

Using degrees Celsius for public forecast. Weather courtesy of forecast.io.

Closest aviation weather report (METAR) to St-Michel-de-Napierville Airport

Closest report is Montreal / Pierre Elliott Trudeau International Airport, 16.8 nm (31.1 km) NNW.

2024/05/30 10:00 (retrieved 48 minutes ago)

CYUL 301000Z 00000KT 15SM FEW060 FEW075 SCT250 10/04 A3002 RMK SC1AC1CI1 SLP170

Closest aviation forecast (TAF) to St-Michel-de-Napierville Airport

Closest forecast is Montreal / Pierre Elliott Trudeau International Airport, 16.8 nm (31.1 km) NNW.

2024/05/30 09:42 (retrieved 1 hour ago)

TAF CYUL 300840Z 3009/3106 VRB03KT P6SM FEW240 BECMG 3009/3011 01008KT FM301700 32008KT P6SM FEW060 BECMG 3017/3019 30010KT FM310200 34008KT P6SM SKC RMK NXT FCST BY 301200Z